Date,TemperatureHighF,TemperatureAvgF,TemperatureLowF,DewpointHighF,DewpointAvgF,DewpointLowF,HumidityHigh,HumidityAvg,HumidityLow,PressureMaxIn,PressureMinIn,WindSpeedMaxMPH,WindSpeedAvgMPH,GustSpeedMaxMPH,PrecipitationSumIn
2013-10-1,64,57,52,54,52,50,97,84,64,30.04,29.96,11,2,13,0.00
2013-10-2,63,56,51,53,51,49,96,83,68,30.04,29.96,12,3,15,0.01
2013-10-3,67,60,50,48,44,32,84,56,28,30.12,29.99,15,2,23,0.00
2013-10-4,78,68,62,36,31,26,35,26,15,30.11,30.00,22,5,27,0.00
2013-10-5,82,68,62,41,33,24,43,28,13,30.21,30.11,9,1,11,0.00
2013-10-6,82,68,62,42,36,27,42,30,18,30.13,30.01,10,2,11,0.00
2013-10-7,73,63,53,51,42,31,91,52,25,30.01,29.91,9,2,13,0.00
2013-10-8,64,55,50,53,50,48,95,83,56,29.94,29.74,11,2,12,0.00
2013-10-9,62,55,49,50,48,44,94,79,54,29.80,29.66,7,1,10,0.01
2013-10-10,60,53,50,52,50,48,96,89,75,30.04,29.79,10,2,17,0.00
2013-10-11,55,51,49,50,49,48,97,93,83,30.12,30.02,8,2,15,0.00
2013-10-12,55,51,48,51,49,47,98,93,84,30.05,29.95,9,3,16,0.00
2013-10-13,67,56,49,55,50,43,98,82,43,30.09,29.96,6,1,10,0.00
2013-10-14,68,59,53,52,44,38,89,61,40,30.13,30.04,8,2,9,0.00
2013-10-15,77,65,59,50,38,33,68,39,21,30.06,29.99,11,2,16,0.00
2013-10-16,80,67,59,46,37,32,61,35,20,30.10,30.01,5,1,10,0.00
2013-10-17,76,64,52,51,42,35,93,48,24,30.09,30.00,5,1,9,0.00
2013-10-18,65,52,48,54,50,47,98,90,66,30.09,30.01,5,1,9,0.00
2013-10-19,73,55,47,54,49,46,98,83,43,30.11,30.04,5,1,8,0.01
2013-10-20,60,51,47,55,49,46,99,95,76,30.06,29.96,6,1,10,0.01
2013-10-21,54,50,48,52,49,48,99,97,89,30.04,29.96,8,1,10,0.00
2013-10-22,59,51,48,57,50,48,100,97,86,30.05,29.97,8,1,9,0.00
2013-10-23,58,50,47,56,49,47,100,97,83,30.01,29.96,12,2,12,0.01
2013-10-24,56,51,48,50,50,48,99,94,83,30.14,30.01,9,2,14,0.00
2013-10-25,60,54,48,53,50,47,97,89,77,30.20,30.12,8,2,12,0.00
2013-10-26,69,54,48,57,51,48,99,90,56,30.17,30.06,6,1,9,0.01
2013-10-27,54,51,49,53,50,48,99,95,86,30.07,29.72,20,4,29,0.01
2013-10-28,56,52,49,52,50,47,96,91,81,29.87,29.70,15,4,25,0.00
2013-10-29,58,53,50,52,50,46,96,88,69,30.08,29.87,9,1,10,0.00
2013-10-30,62,53,48,53,49,46,98,88,69,30.18,30.08,8,1,12,0.01
2013-10-31,68,57,48,52,47,42,93,72,50,30.21,30.11,7,1,7,0.00